sensor_id;sensor_type;location;lat;lon;timestamp;P1;durP1;ratioP1;P2;durP2;ratioP2
48487;SDS011;34289;48.572;13.378;2022-12-20T00:00:16;52.78;;;31.23;;
48487;SDS011;34289;48.572;13.378;2022-12-20T00:02:42;51.58;;;28.27;;
48487;SDS011;34289;48.572;13.378;2022-12-20T00:05:07;46.65;;;27.35;;
48487;SDS011;34289;48.572;13.378;2022-12-20T00:07:33;46.15;;;26.33;;
48487;SDS011;34289;48.572;13.378;2022-12-20T00:09:58;48.17;;;27.33;;
48487;SDS011;34289;48.572;13.378;2022-12-20T00:12:24;46.08;;;27.45;;
48487;SDS011;34289;48.572;13.378;2022-12-20T00:14:50;46.40;;;26.55;;
48487;SDS011;34289;48.572;13.378;2022-12-20T00:17:15;42.53;;;25.02;;
48487;SDS011;34289;48.572;13.378;2022-12-20T00:19:44;50.90;;;27.38;;
48487;SDS011;34289;48.572;13.378;2022-12-20T00:22:10;46.88;;;26.42;;
48487;SDS011;34289;48.572;13.378;2022-12-20T00:24:35;45.08;;;26.45;;
48487;SDS011;34289;48.572;13.378;2022-12-20T00:27:01;50.38;;;29.00;;
48487;SDS011;34289;48.572;13.378;2022-12-20T00:29:27;48.35;;;27.17;;
48487;SDS011;34289;48.572;13.378;2022-12-20T00:31:52;49.03;;;28.60;;
48487;SDS011;34289;48.572;13.378;2022-12-20T00:34:18;48.25;;;27.42;;
48487;SDS011;34289;48.572;13.378;2022-12-20T00:36:43;44.45;;;26.27;;
48487;SDS011;34289;48.572;13.378;2022-12-20T00:39:09;49.20;;;26.30;;
48487;SDS011;34289;48.572;13.378;2022-12-20T00:41:35;49.65;;;28.45;;
48487;SDS011;34289;48.572;13.378;2022-12-20T00:44:01;49.10;;;27.58;;
48487;SDS011;34289;48.572;13.378;2022-12-20T00:46:27;44.95;;;26.98;;
48487;SDS011;34289;48.572;13.378;2022-12-20T00:48:54;41.28;;;24.58;;
48487;SDS011;34289;48.572;13.378;2022-12-20T00:51:21;50.28;;;26.95;;
48487;SDS011;34289;48.572;13.378;2022-12-20T00:53:52;46.10;;;27.67;;
48487;SDS011;34289;48.572;13.378;2022-12-20T00:56:18;54.05;;;28.92;;
48487;SDS011;34289;48.572;13.378;2022-12-20T00:58:44;48.63;;;28.00;;
48487;SDS011;34289;48.572;13.378;2022-12-20T01:01:18;47.58;;;27.88;;
48487;SDS011;34289;48.572;13.378;2022-12-20T01:03:45;48.38;;;28.05;;
48487;SDS011;34289;48.572;13.378;2022-12-20T01:06:11;58.33;;;28.40;;
48487;SDS011;34289;48.572;13.378;2022-12-20T01:08:37;50.33;;;25.98;;
48487;SDS011;34289;48.572;13.378;2022-12-20T01:11:04;45.35;;;25.23;;
48487;SDS011;34289;48.572;13.378;2022-12-20T01:13:34;42.85;;;24.67;;
48487;SDS011;34289;48.572;13.378;2022-12-20T01:16:05;49.83;;;28.23;;
48487;SDS011;34289;48.572;13.378;2022-12-20T01:18:33;51.17;;;28.50;;
48487;SDS011;34289;48.572;13.378;2022-12-20T01:21:02;48.75;;;27.98;;
48487;SDS011;34289;48.572;13.378;2022-12-20T01:23:29;53.63;;;30.40;;
48487;SDS011;34289;48.572;13.378;2022-12-20T01:25:56;46.05;;;26.67;;
48487;SDS011;34289;48.572;13.378;2022-12-20T01:28:23;46.72;;;27.80;;
48487;SDS011;34289;48.572;13.378;2022-12-20T01:30:49;49.55;;;29.55;;
48487;SDS011;34289;48.572;13.378;2022-12-20T01:33:15;50.92;;;28.58;;
48487;SDS011;34289;48.572;13.378;2022-12-20T01:35:40;45.03;;;26.67;;
48487;SDS011;34289;48.572;13.378;2022-12-20T01:38:06;54.08;;;29.13;;
48487;SDS011;34289;48.572;13.378;2022-12-20T01:40:32;48.47;;;27.45;;
48487;SDS011;34289;48.572;13.378;2022-12-20T01:42:57;47.17;;;27.13;;
48487;SDS011;34289;48.572;13.378;2022-12-20T01:45:27;51.10;;;28.88;;
48487;SDS011;34289;48.572;13.378;2022-12-20T01:47:54;50.40;;;28.63;;
48487;SDS011;34289;48.572;13.378;2022-12-20T01:50:22;45.90;;;26.67;;
48487;SDS011;34289;48.572;13.378;2022-12-20T01:52:47;44.08;;;26.02;;
48487;SDS011;34289;48.572;13.378;2022-12-20T01:55:23;50.35;;;28.25;;
48487;SDS011;34289;48.572;13.378;2022-12-20T01:57:53;47.95;;;28.08;;
48487;SDS011;34289;48.572;13.378;2022-12-20T02:00:25;53.95;;;28.25;;
48487;SDS011;34289;48.572;13.378;2022-12-20T02:02:53;50.00;;;26.70;;
48487;SDS011;34289;48.572;13.378;2022-12-20T02:05:22;41.03;;;24.23;;
48487;SDS011;34289;48.572;13.378;2022-12-20T02:07:49;48.42;;;25.75;;
48487;SDS011;34289;48.572;13.378;2022-12-20T02:10:17;43.83;;;26.05;;
48487;SDS011;34289;48.572;13.378;2022-12-20T02:12:47;54.33;;;26.25;;
48487;SDS011;34289;48.572;13.378;2022-12-20T02:31:26;52.03;;;27.52;;
48487;SDS011;34289;48.572;13.378;2022-12-20T02:34:05;50.08;;;28.55;;
48487;SDS011;34289;48.572;13.378;2022-12-20T02:36:32;51.38;;;28.02;;
48487;SDS011;34289;48.572;13.378;2022-12-20T02:38:58;52.05;;;28.33;;
48487;SDS011;34289;48.572;13.378;2022-12-20T02:43:53;46.95;;;27.23;;
48487;SDS011;34289;48.572;13.378;2022-12-20T02:47:04;54.58;;;29.10;;
48487;SDS011;34289;48.572;13.378;2022-12-20T02:49:35;48.70;;;27.77;;
48487;SDS011;34289;48.572;13.378;2022-12-20T02:52:05;44.75;;;25.42;;
48487;SDS011;34289;48.572;13.378;2022-12-20T02:54:33;43.42;;;26.35;;
48487;SDS011;34289;48.572;13.378;2022-12-20T02:59:57;51.30;;;27.65;;
48487;SDS011;34289;48.572;13.378;2022-12-20T03:02:29;44.35;;;26.02;;
48487;SDS011;34289;48.572;13.378;2022-12-20T03:05:19;47.75;;;25.98;;
48487;SDS011;34289;48.572;13.378;2022-12-20T03:07:46;43.90;;;26.25;;
48487;SDS011;34289;48.572;13.378;2022-12-20T03:10:12;46.85;;;26.92;;
48487;SDS011;34289;48.572;13.378;2022-12-20T03:12:38;49.72;;;27.60;;
48487;SDS011;34289;48.572;13.378;2022-12-20T03:15:03;48.80;;;28.27;;
48487;SDS011;34289;48.572;13.378;2022-12-20T03:17:29;49.70;;;29.00;;
48487;SDS011;34289;48.572;13.378;2022-12-20T03:19:55;44.15;;;27.00;;
48487;SDS011;34289;48.572;13.378;2022-12-20T03:22:21;51.85;;;27.35;;
48487;SDS011;34289;48.572;13.378;2022-12-20T03:24:47;48.80;;;28.17;;
48487;SDS011;34289;48.572;13.378;2022-12-20T03:27:13;47.13;;;26.13;;
48487;SDS011;34289;48.572;13.378;2022-12-20T03:29:39;49.80;;;26.33;;
48487;SDS011;34289;48.572;13.378;2022-12-20T03:32:04;48.13;;;27.85;;
48487;SDS011;34289;48.572;13.378;2022-12-20T03:34:30;45.75;;;25.67;;
48487;SDS011;34289;48.572;13.378;2022-12-20T03:36:56;46.95;;;25.83;;
48487;SDS011;34289;48.572;13.378;2022-12-20T03:39:22;45.03;;;25.02;;
48487;SDS011;34289;48.572;13.378;2022-12-20T03:41:47;44.85;;;25.27;;
48487;SDS011;34289;48.572;13.378;2022-12-20T03:44:13;41.75;;;25.55;;
48487;SDS011;34289;48.572;13.378;2022-12-20T03:46:38;45.55;;;26.35;;
48487;SDS011;34289;48.572;13.378;2022-12-20T03:49:04;44.05;;;25.60;;
48487;SDS011;34289;48.572;13.378;2022-12-20T03:51:29;45.65;;;25.98;;
48487;SDS011;34289;48.572;13.378;2022-12-20T03:53:55;50.83;;;26.88;;
48487;SDS011;34289;48.572;13.378;2022-12-20T03:56:21;45.15;;;26.50;;
48487;SDS011;34289;48.572;13.378;2022-12-20T03:58:46;45.47;;;25.38;;
48487;SDS011;34289;48.572;13.378;2022-12-20T04:01:18;47.72;;;27.15;;
48487;SDS011;34289;48.572;13.378;2022-12-20T04:03:49;42.80;;;25.98;;
48487;SDS011;34289;48.572;13.378;2022-12-20T04:06:15;42.90;;;24.90;;
48487;SDS011;34289;48.572;13.378;2022-12-20T04:08:41;44.40;;;24.20;;
48487;SDS011;34289;48.572;13.378;2022-12-20T04:11:07;42.38;;;24.85;;
48487;SDS011;34289;48.572;13.378;2022-12-20T04:13:51;45.47;;;24.85;;
48487;SDS011;34289;48.572;13.378;2022-12-20T04:16:21;44.47;;;24.98;;
48487;SDS011;34289;48.572;13.378;2022-12-20T04:18:49;42.13;;;23.88;;
48487;SDS011;34289;48.572;13.378;2022-12-20T04:21:15;46.15;;;26.05;;
48487;SDS011;34289;48.572;13.378;2022-12-20T04:23:50;43.08;;;25.52;;
48487;SDS011;34289;48.572;13.378;2022-12-20T04:26:16;46.55;;;26.25;;
48487;SDS011;34289;48.572;13.378;2022-12-20T04:28:41;42.53;;;21.98;;
48487;SDS011;34289;48.572;13.378;2022-12-20T04:31:07;41.15;;;23.85;;
48487;SDS011;34289;48.572;13.378;2022-12-20T04:33:34;41.92;;;24.20;;
48487;SDS011;34289;48.572;13.378;2022-12-20T04:36:00;43.03;;;24.92;;
48487;SDS011;34289;48.572;13.378;2022-12-20T04:38:26;44.95;;;25.15;;
48487;SDS011;34289;48.572;13.378;2022-12-20T04:40:52;46.50;;;26.25;;
48487;SDS011;34289;48.572;13.378;2022-12-20T04:43:19;45.83;;;25.23;;
48487;SDS011;34289;48.572;13.378;2022-12-20T04:45:48;41.58;;;23.88;;
48487;SDS011;34289;48.572;13.378;2022-12-20T04:48:16;39.08;;;22.77;;
48487;SDS011;34289;48.572;13.378;2022-12-20T04:50:42;41.97;;;23.73;;
48487;SDS011;34289;48.572;13.378;2022-12-20T04:53:10;40.72;;;22.75;;
48487;SDS011;34289;48.572;13.378;2022-12-20T04:55:54;53.90;;;25.63;;
48487;SDS011;34289;48.572;13.378;2022-12-20T04:58:20;45.35;;;24.77;;
48487;SDS011;34289;48.572;13.378;2022-12-20T05:00:46;44.75;;;25.42;;
48487;SDS011;34289;48.572;13.378;2022-12-20T05:03:11;47.28;;;25.08;;
48487;SDS011;34289;48.572;13.378;2022-12-20T05:05:37;46.45;;;25.60;;
48487;SDS011;34289;48.572;13.378;2022-12-20T05:08:02;51.33;;;27.40;;
48487;SDS011;34289;48.572;13.378;2022-12-20T05:10:28;38.97;;;24.08;;
48487;SDS011;34289;48.572;13.378;2022-12-20T05:12:54;41.03;;;25.00;;
48487;SDS011;34289;48.572;13.378;2022-12-20T05:15:19;40.38;;;23.08;;
48487;SDS011;34289;48.572;13.378;2022-12-20T05:17:45;42.50;;;24.65;;
48487;SDS011;34289;48.572;13.378;2022-12-20T05:20:11;41.28;;;22.92;;
48487;SDS011;34289;48.572;13.378;2022-12-20T05:22:37;45.03;;;23.85;;
48487;SDS011;34289;48.572;13.378;2022-12-20T05:25:21;41.92;;;24.42;;
48487;SDS011;34289;48.572;13.378;2022-12-20T05:28:05;42.22;;;23.90;;
48487;SDS011;34289;48.572;13.378;2022-12-20T05:30:31;48.70;;;26.92;;
48487;SDS011;34289;48.572;13.378;2022-12-20T05:32:56;43.30;;;25.05;;
48487;SDS011;34289;48.572;13.378;2022-12-20T05:35:22;49.63;;;27.20;;
48487;SDS011;34289;48.572;13.378;2022-12-20T05:37:48;50.50;;;26.15;;
48487;SDS011;34289;48.572;13.378;2022-12-20T05:40:13;45.25;;;24.92;;
48487;SDS011;34289;48.572;13.378;2022-12-20T05:42:42;42.28;;;24.20;;
48487;SDS011;34289;48.572;13.378;2022-12-20T05:45:08;45.53;;;25.85;;
48487;SDS011;34289;48.572;13.378;2022-12-20T05:47:35;48.08;;;27.20;;
48487;SDS011;34289;48.572;13.378;2022-12-20T05:50:01;39.95;;;24.27;;
48487;SDS011;34289;48.572;13.378;2022-12-20T05:52:28;46.72;;;25.58;;
48487;SDS011;34289;48.572;13.378;2022-12-20T05:54:54;47.67;;;25.48;;
48487;SDS011;34289;48.572;13.378;2022-12-20T05:57:22;45.35;;;24.85;;
48487;SDS011;34289;48.572;13.378;2022-12-20T05:59:48;42.88;;;24.83;;
48487;SDS011;34289;48.572;13.378;2022-12-20T06:02:13;47.22;;;26.02;;
48487;SDS011;34289;48.572;13.378;2022-12-20T06:04:39;46.08;;;26.30;;
48487;SDS011;34289;48.572;13.378;2022-12-20T06:07:05;54.60;;;29.92;;
48487;SDS011;34289;48.572;13.378;2022-12-20T06:09:31;51.47;;;27.05;;
48487;SDS011;34289;48.572;13.378;2022-12-20T06:11:57;49.53;;;27.70;;
48487;SDS011;34289;48.572;13.378;2022-12-20T06:14:23;47.42;;;26.77;;
48487;SDS011;34289;48.572;13.378;2022-12-20T06:16:49;44.25;;;25.88;;
48487;SDS011;34289;48.572;13.378;2022-12-20T06:19:15;41.05;;;25.40;;
48487;SDS011;34289;48.572;13.378;2022-12-20T06:21:41;42.67;;;23.77;;
48487;SDS011;34289;48.572;13.378;2022-12-20T06:24:07;44.22;;;24.70;;
48487;SDS011;34289;48.572;13.378;2022-12-20T06:26:32;49.80;;;26.05;;
48487;SDS011;34289;48.572;13.378;2022-12-20T06:29:05;41.65;;;25.50;;
48487;SDS011;34289;48.572;13.378;2022-12-20T06:31:33;44.83;;;23.73;;
48487;SDS011;34289;48.572;13.378;2022-12-20T06:33:58;47.75;;;26.20;;
48487;SDS011;34289;48.572;13.378;2022-12-20T06:36:24;39.10;;;23.92;;
48487;SDS011;34289;48.572;13.378;2022-12-20T06:38:50;46.92;;;25.50;;
48487;SDS011;34289;48.572;13.378;2022-12-20T06:41:15;40.28;;;23.40;;
48487;SDS011;34289;48.572;13.378;2022-12-20T06:43:41;41.00;;;21.75;;
48487;SDS011;34289;48.572;13.378;2022-12-20T06:46:07;40.22;;;24.27;;
48487;SDS011;34289;48.572;13.378;2022-12-20T06:48:32;39.65;;;24.10;;
48487;SDS011;34289;48.572;13.378;2022-12-20T06:50:58;45.83;;;25.48;;
48487;SDS011;34289;48.572;13.378;2022-12-20T06:53:24;48.97;;;26.27;;
48487;SDS011;34289;48.572;13.378;2022-12-20T06:55:49;46.78;;;27.25;;
48487;SDS011;34289;48.572;13.378;2022-12-20T06:58:16;47.20;;;26.92;;
48487;SDS011;34289;48.572;13.378;2022-12-20T07:00:42;54.00;;;27.38;;
48487;SDS011;34289;48.572;13.378;2022-12-20T07:03:07;55.65;;;28.95;;
48487;SDS011;34289;48.572;13.378;2022-12-20T07:05:33;58.25;;;30.73;;
48487;SDS011;34289;48.572;13.378;2022-12-20T07:07:59;53.65;;;27.30;;
48487;SDS011;34289;48.572;13.378;2022-12-20T07:10:26;42.72;;;23.38;;
48487;SDS011;34289;48.572;13.378;2022-12-20T07:12:52;45.83;;;25.23;;
48487;SDS011;34289;48.572;13.378;2022-12-20T07:15:17;47.97;;;25.70;;
48487;SDS011;34289;48.572;13.378;2022-12-20T07:17:46;93.43;;;48.97;;
48487;SDS011;34289;48.572;13.378;2022-12-20T07:20:12;51.92;;;30.38;;
48487;SDS011;34289;48.572;13.378;2022-12-20T07:22:38;51.92;;;31.20;;
48487;SDS011;34289;48.572;13.378;2022-12-20T07:25:03;53.47;;;30.98;;
48487;SDS011;34289;48.572;13.378;2022-12-20T07:27:29;44.22;;;27.00;;
48487;SDS011;34289;48.572;13.378;2022-12-20T07:29:55;46.33;;;25.23;;
48487;SDS011;34289;48.572;13.378;2022-12-20T07:32:20;48.35;;;27.58;;
48487;SDS011;34289;48.572;13.378;2022-12-20T07:34:46;46.60;;;25.42;;
48487;SDS011;34289;48.572;13.378;2022-12-20T07:37:12;48.92;;;27.40;;
48487;SDS011;34289;48.572;13.378;2022-12-20T07:39:37;49.33;;;26.83;;
48487;SDS011;34289;48.572;13.378;2022-12-20T07:42:03;45.80;;;26.85;;
48487;SDS011;34289;48.572;13.378;2022-12-20T07:44:29;47.17;;;24.80;;
48487;SDS011;34289;48.572;13.378;2022-12-20T07:46:55;42.10;;;23.50;;
48487;SDS011;34289;48.572;13.378;2022-12-20T07:49:20;41.35;;;24.38;;
48487;SDS011;34289;48.572;13.378;2022-12-20T07:51:50;48.72;;;25.98;;
48487;SDS011;34289;48.572;13.378;2022-12-20T07:54:22;42.92;;;24.17;;
48487;SDS011;34289;48.572;13.378;2022-12-20T07:56:53;41.83;;;24.67;;
48487;SDS011;34289;48.572;13.378;2022-12-20T07:59:28;45.88;;;23.58;;
48487;SDS011;34289;48.572;13.378;2022-12-20T08:02:00;44.20;;;24.92;;
48487;SDS011;34289;48.572;13.378;2022-12-20T08:04:26;46.22;;;25.08;;
48487;SDS011;34289;48.572;13.378;2022-12-20T08:06:54;45.33;;;24.35;;
48487;SDS011;34289;48.572;13.378;2022-12-20T08:09:24;43.50;;;23.95;;
48487;SDS011;34289;48.572;13.378;2022-12-20T08:11:53;43.92;;;25.48;;
48487;SDS011;34289;48.572;13.378;2022-12-20T08:14:19;49.00;;;27.17;;
48487;SDS011;34289;48.572;13.378;2022-12-20T08:16:45;51.58;;;25.65;;
48487;SDS011;34289;48.572;13.378;2022-12-20T08:19:11;51.55;;;27.45;;
48487;SDS011;34289;48.572;13.378;2022-12-20T08:21:37;48.50;;;27.05;;
48487;SDS011;34289;48.572;13.378;2022-12-20T08:24:02;46.17;;;25.05;;
48487;SDS011;34289;48.572;13.378;2022-12-20T08:26:28;41.60;;;24.25;;
48487;SDS011;34289;48.572;13.378;2022-12-20T08:28:54;42.85;;;25.17;;
48487;SDS011;34289;48.572;13.378;2022-12-20T08:31:20;43.67;;;25.23;;
48487;SDS011;34289;48.572;13.378;2022-12-20T08:33:46;41.80;;;23.85;;
48487;SDS011;34289;48.572;13.378;2022-12-20T08:36:12;39.53;;;23.77;;
48487;SDS011;34289;48.572;13.378;2022-12-20T08:38:38;43.97;;;25.00;;
48487;SDS011;34289;48.572;13.378;2022-12-20T08:41:06;50.78;;;25.90;;
48487;SDS011;34289;48.572;13.378;2022-12-20T08:43:35;47.75;;;25.90;;
48487;SDS011;34289;48.572;13.378;2022-12-20T08:46:01;48.35;;;26.30;;
48487;SDS011;34289;48.572;13.378;2022-12-20T08:48:27;46.72;;;25.55;;
48487;SDS011;34289;48.572;13.378;2022-12-20T08:50:56;42.85;;;24.40;;
48487;SDS011;34289;48.572;13.378;2022-12-20T08:53:24;48.58;;;27.15;;
48487;SDS011;34289;48.572;13.378;2022-12-20T08:55:50;52.60;;;27.80;;
48487;SDS011;34289;48.572;13.378;2022-12-20T08:58:16;54.85;;;30.27;;
48487;SDS011;34289;48.572;13.378;2022-12-20T09:00:42;48.40;;;26.90;;
48487;SDS011;34289;48.572;13.378;2022-12-20T09:03:11;53.65;;;28.88;;
48487;SDS011;34289;48.572;13.378;2022-12-20T09:05:44;52.00;;;29.10;;
48487;SDS011;34289;48.572;13.378;2022-12-20T09:08:11;62.15;;;31.58;;
48487;SDS011;34289;48.572;13.378;2022-12-20T09:10:41;62.20;;;32.47;;
48487;SDS011;34289;48.572;13.378;2022-12-20T09:13:07;68.88;;;34.25;;
48487;SDS011;34289;48.572;13.378;2022-12-20T09:15:34;70.80;;;34.45;;
48487;SDS011;34289;48.572;13.378;2022-12-20T09:18:00;68.78;;;32.40;;
48487;SDS011;34289;48.572;13.378;2022-12-20T09:20:26;75.38;;;35.03;;
48487;SDS011;34289;48.572;13.378;2022-12-20T09:22:52;68.88;;;33.03;;
48487;SDS011;34289;48.572;13.378;2022-12-20T09:25:17;72.60;;;32.83;;
48487;SDS011;34289;48.572;13.378;2022-12-20T09:27:43;67.82;;;34.15;;
48487;SDS011;34289;48.572;13.378;2022-12-20T09:30:09;72.13;;;34.33;;
48487;SDS011;34289;48.572;13.378;2022-12-20T09:32:35;70.18;;;33.25;;
48487;SDS011;34289;48.572;13.378;2022-12-20T09:35:01;64.85;;;31.73;;
48487;SDS011;34289;48.572;13.378;2022-12-20T09:37:31;63.80;;;31.75;;
48487;SDS011;34289;48.572;13.378;2022-12-20T09:39:59;66.90;;;32.37;;
48487;SDS011;34289;48.572;13.378;2022-12-20T09:42:25;72.07;;;33.88;;
48487;SDS011;34289;48.572;13.378;2022-12-20T09:44:55;66.35;;;31.50;;
48487;SDS011;34289;48.572;13.378;2022-12-20T09:47:31;68.28;;;31.92;;
48487;SDS011;34289;48.572;13.378;2022-12-20T09:50:00;65.30;;;32.65;;
48487;SDS011;34289;48.572;13.378;2022-12-20T09:55:08;65.63;;;33.60;;
48487;SDS011;34289;48.572;13.378;2022-12-20T10:00:46;65.22;;;33.10;;
48487;SDS011;34289;48.572;13.378;2022-12-20T10:03:19;68.65;;;34.17;;
48487;SDS011;34289;48.572;13.378;2022-12-20T10:06:02;61.35;;;30.85;;
48487;SDS011;34289;48.572;13.378;2022-12-20T10:08:54;63.53;;;32.35;;
48487;SDS011;34289;48.572;13.378;2022-12-20T10:14:41;63.90;;;31.05;;
48487;SDS011;34289;48.572;13.378;2022-12-20T10:17:09;55.97;;;30.00;;
48487;SDS011;34289;48.572;13.378;2022-12-20T10:19:59;56.17;;;31.10;;
48487;SDS011;34289;48.572;13.378;2022-12-20T10:22:58;62.13;;;32.17;;
48487;SDS011;34289;48.572;13.378;2022-12-20T10:25:41;63.13;;;31.83;;
48487;SDS011;34289;48.572;13.378;2022-12-20T10:28:13;63.75;;;32.15;;
48487;SDS011;34289;48.572;13.378;2022-12-20T10:30:40;70.45;;;34.05;;
48487;SDS011;34289;48.572;13.378;2022-12-20T10:33:19;59.67;;;32.92;;
48487;SDS011;34289;48.572;13.378;2022-12-20T10:35:47;62.30;;;30.92;;
48487;SDS011;34289;48.572;13.378;2022-12-20T10:38:14;61.03;;;31.30;;
48487;SDS011;34289;48.572;13.378;2022-12-20T10:43:20;64.45;;;33.00;;
48487;SDS011;34289;48.572;13.378;2022-12-20T10:45:57;63.75;;;32.70;;
48487;SDS011;34289;48.572;13.378;2022-12-20T10:53:33;61.38;;;33.33;;
48487;SDS011;34289;48.572;13.378;2022-12-20T10:56:15;63.25;;;31.95;;
48487;SDS011;34289;48.572;13.378;2022-12-20T11:01:17;64.00;;;32.85;;
48487;SDS011;34289;48.572;13.378;2022-12-20T11:06:45;66.60;;;34.15;;
48487;SDS011;34289;48.572;13.378;2022-12-20T11:09:13;60.35;;;31.55;;
48487;SDS011;34289;48.572;13.378;2022-12-20T11:14:40;64.45;;;33.05;;
48487;SDS011;34289;48.572;13.378;2022-12-20T11:30:51;65.95;;;33.53;;
48487;SDS011;34289;48.572;13.378;2022-12-20T11:55:25;66.22;;;33.58;;
48487;SDS011;34289;48.572;13.378;2022-12-20T12:00:29;78.28;;;36.67;;
48487;SDS011;34289;48.572;13.378;2022-12-20T12:03:10;75.30;;;34.20;;
48487;SDS011;34289;48.572;13.378;2022-12-20T12:08:52;64.93;;;29.42;;
48487;SDS011;34289;48.572;13.378;2022-12-20T12:11:21;67.45;;;31.65;;
48487;SDS011;34289;48.572;13.378;2022-12-20T12:13:51;73.97;;;34.58;;
48487;SDS011;34289;48.572;13.378;2022-12-20T12:16:26;68.60;;;31.65;;
48487;SDS011;34289;48.572;13.378;2022-12-20T12:19:04;79.72;;;34.88;;
48487;SDS011;34289;48.572;13.378;2022-12-20T12:21:39;61.20;;;29.15;;
48487;SDS011;34289;48.572;13.378;2022-12-20T12:26:49;76.13;;;36.33;;
48487;SDS011;34289;48.572;13.378;2022-12-20T12:29:16;78.57;;;36.15;;
48487;SDS011;34289;48.572;13.378;2022-12-20T12:37:25;68.67;;;34.07;;
48487;SDS011;34289;48.572;13.378;2022-12-20T12:40:15;74.57;;;34.95;;
48487;SDS011;34289;48.572;13.378;2022-12-20T12:43:01;70.25;;;30.90;;
48487;SDS011;34289;48.572;13.378;2022-12-20T12:45:54;67.72;;;34.13;;
48487;SDS011;34289;48.572;13.378;2022-12-20T12:51:22;74.55;;;36.03;;
48487;SDS011;34289;48.572;13.378;2022-12-20T12:53:52;72.05;;;37.38;;
48487;SDS011;34289;48.572;13.378;2022-12-20T13:11:54;72.30;;;34.90;;
48487;SDS011;34289;48.572;13.378;2022-12-20T13:16:50;73.35;;;35.15;;
48487;SDS011;34289;48.572;13.378;2022-12-20T13:19:38;76.13;;;36.20;;
48487;SDS011;34289;48.572;13.378;2022-12-20T13:24:59;85.78;;;37.00;;
48487;SDS011;34289;48.572;13.378;2022-12-20T13:40:39;70.28;;;35.78;;
48487;SDS011;34289;48.572;13.378;2022-12-20T13:48:21;65.57;;;32.95;;
48487;SDS011;34289;48.572;13.378;2022-12-20T13:50:53;59.00;;;26.80;;
48487;SDS011;34289;48.572;13.378;2022-12-20T13:53:24;70.63;;;34.80;;
48487;SDS011;34289;48.572;13.378;2022-12-20T13:55:51;74.40;;;36.92;;
48487;SDS011;34289;48.572;13.378;2022-12-20T13:58:25;73.63;;;35.90;;
48487;SDS011;34289;48.572;13.378;2022-12-20T14:01:02;70.10;;;35.42;;
48487;SDS011;34289;48.572;13.378;2022-12-20T14:03:31;71.47;;;33.80;;
48487;SDS011;34289;48.572;13.378;2022-12-20T14:06:01;72.30;;;35.83;;
48487;SDS011;34289;48.572;13.378;2022-12-20T14:08:35;77.38;;;36.83;;
48487;SDS011;34289;48.572;13.378;2022-12-20T14:11:09;74.15;;;35.90;;
48487;SDS011;34289;48.572;13.378;2022-12-20T14:13:36;70.13;;;34.20;;
48487;SDS011;34289;48.572;13.378;2022-12-20T14:16:21;78.47;;;36.83;;
48487;SDS011;34289;48.572;13.378;2022-12-20T14:18:50;77.38;;;36.20;;
48487;SDS011;34289;48.572;13.378;2022-12-20T14:21:21;71.85;;;32.55;;
48487;SDS011;34289;48.572;13.378;2022-12-20T14:23:49;89.30;;;38.95;;
48487;SDS011;34289;48.572;13.378;2022-12-20T14:26:19;57.85;;;25.80;;
48487;SDS011;34289;48.572;13.378;2022-12-20T14:28:49;86.20;;;36.63;;
48487;SDS011;34289;48.572;13.378;2022-12-20T14:34:22;75.13;;;36.60;;
48487;SDS011;34289;48.572;13.378;2022-12-20T14:39:52;83.53;;;39.17;;
48487;SDS011;34289;48.572;13.378;2022-12-20T14:42:19;84.53;;;37.47;;
48487;SDS011;34289;48.572;13.378;2022-12-20T14:44:45;77.65;;;38.20;;
48487;SDS011;34289;48.572;13.378;2022-12-20T14:50:00;76.43;;;35.35;;
48487;SDS011;34289;48.572;13.378;2022-12-20T14:54:58;76.22;;;34.00;;
48487;SDS011;34289;48.572;13.378;2022-12-20T14:57:26;77.75;;;36.70;;
48487;SDS011;34289;48.572;13.378;2022-12-20T15:05:06;71.55;;;35.00;;
48487;SDS011;34289;48.572;13.378;2022-12-20T15:07:52;72.22;;;35.10;;
48487;SDS011;34289;48.572;13.378;2022-12-20T15:10:17;79.60;;;36.72;;
48487;SDS011;34289;48.572;13.378;2022-12-20T15:12:43;74.93;;;34.95;;
48487;SDS011;34289;48.572;13.378;2022-12-20T15:15:14;77.85;;;37.25;;
48487;SDS011;34289;48.572;13.378;2022-12-20T15:17:40;62.83;;;28.80;;
48487;SDS011;34289;48.572;13.378;2022-12-20T15:20:10;74.00;;;35.05;;
48487;SDS011;34289;48.572;13.378;2022-12-20T15:22:36;73.93;;;33.75;;
48487;SDS011;34289;48.572;13.378;2022-12-20T15:25:08;70.80;;;35.25;;
48487;SDS011;34289;48.572;13.378;2022-12-20T15:27:40;71.93;;;34.15;;
48487;SDS011;34289;48.572;13.378;2022-12-20T15:30:10;46.15;;;20.60;;
48487;SDS011;34289;48.572;13.378;2022-12-20T15:32:38;76.43;;;34.75;;
48487;SDS011;34289;48.572;13.378;2022-12-20T15:35:04;77.95;;;36.50;;
48487;SDS011;34289;48.572;13.378;2022-12-20T15:37:30;75.55;;;34.05;;
48487;SDS011;34289;48.572;13.378;2022-12-20T15:39:56;69.82;;;33.28;;
48487;SDS011;34289;48.572;13.378;2022-12-20T15:42:21;70.32;;;32.90;;
48487;SDS011;34289;48.572;13.378;2022-12-20T15:44:48;78.32;;;35.15;;
48487;SDS011;34289;48.572;13.378;2022-12-20T15:47:15;72.03;;;35.60;;
48487;SDS011;34289;48.572;13.378;2022-12-20T15:49:41;72.78;;;34.45;;
48487;SDS011;34289;48.572;13.378;2022-12-20T15:52:08;84.10;;;35.47;;
48487;SDS011;34289;48.572;13.378;2022-12-20T15:54:43;73.03;;;35.85;;
48487;SDS011;34289;48.572;13.378;2022-12-20T15:57:09;74.13;;;34.97;;
48487;SDS011;34289;48.572;13.378;2022-12-20T15:59:37;77.47;;;32.92;;
48487;SDS011;34289;48.572;13.378;2022-12-20T16:02:08;68.35;;;33.25;;
48487;SDS011;34289;48.572;13.378;2022-12-20T16:04:49;67.65;;;31.40;;
48487;SDS011;34289;48.572;13.378;2022-12-20T16:07:14;71.10;;;33.00;;
48487;SDS011;34289;48.572;13.378;2022-12-20T16:09:40;73.93;;;34.75;;
48487;SDS011;34289;48.572;13.378;2022-12-20T16:12:10;73.10;;;33.47;;
48487;SDS011;34289;48.572;13.378;2022-12-20T16:14:42;72.72;;;33.40;;
48487;SDS011;34289;48.572;13.378;2022-12-20T16:17:14;82.57;;;37.20;;
48487;SDS011;34289;48.572;13.378;2022-12-20T16:19:40;135.40;;;64.18;;
48487;SDS011;34289;48.572;13.378;2022-12-20T16:22:14;94.85;;;45.05;;
48487;SDS011;34289;48.572;13.378;2022-12-20T16:24:41;86.35;;;40.20;;
48487;SDS011;34289;48.572;13.378;2022-12-20T16:27:07;88.45;;;42.03;;
48487;SDS011;34289;48.572;13.378;2022-12-20T16:29:33;99.53;;;45.70;;
48487;SDS011;34289;48.572;13.378;2022-12-20T16:31:59;83.85;;;42.45;;
48487;SDS011;34289;48.572;13.378;2022-12-20T16:34:24;94.80;;;44.78;;
48487;SDS011;34289;48.572;13.378;2022-12-20T16:36:53;97.50;;;48.67;;
48487;SDS011;34289;48.572;13.378;2022-12-20T16:39:18;80.15;;;38.22;;
48487;SDS011;34289;48.572;13.378;2022-12-20T16:41:44;77.55;;;35.17;;
48487;SDS011;34289;48.572;13.378;2022-12-20T16:44:11;70.28;;;34.17;;
48487;SDS011;34289;48.572;13.378;2022-12-20T16:46:38;63.20;;;31.40;;
48487;SDS011;34289;48.572;13.378;2022-12-20T16:49:04;70.80;;;33.72;;
48487;SDS011;34289;48.572;13.378;2022-12-20T16:51:30;74.47;;;36.72;;